Time;durP1;ratioP1;P1;durP2;ratioP2;P2;SDS_P1;SDS_P2;PMS_P1;PMS_P2;Temp;Humidity;BMP_temperature;BMP_pressure;BME280_temperature;BME280_humidity;BME280_pressure;Samples;Min_cycle;Max_cycle;Signal;HPM_P1;HPM_P2
2023/06/05 00:00:53;;;;;;;2.30;1.65;;;;;;;17.47;37.02;97367.34;4747291;29;20216;-76
2023/06/05 00:03:19;;;;;;;2.88;1.52;;;;;;;17.43;37.13;97372.38;4768691;29;20561;-76
2023/06/05 00:05:45;;;;;;;1.40;1.30;;;;;;;17.35;37.66;97370.38;4760437;29;20414;-76
2023/06/05 00:08:10;;;;;;;1.88;1.25;;;;;;;17.32;37.15;97370.94;4768366;29;20521;-76
2023/06/05 00:10:37;;;;;;;1.98;1.20;;;;;;;17.25;38.14;97368.66;4755329;29;20307;-76
2023/06/05 00:13:02;;;;;;;2.28;1.50;;;;;;;17.29;37.32;97366.25;4773858;29;20532;-77
2023/06/05 00:15:27;;;;;;;2.53;1.25;;;;;;;17.21;37.74;97354.50;4771883;29;20522;-77
2023/06/05 00:17:55;;;;;;;1.63;1.10;;;;;;;17.20;37.51;97369.53;4741315;29;20491;-77
2023/06/05 00:20:20;;;;;;;3.03;1.48;;;;;;;17.17;38.16;97369.28;4743182;29;20322;-76
2023/06/05 00:22:47;;;;;;;1.98;1.40;;;;;;;17.10;38.33;97363.59;4769252;29;20200;-76
2023/06/05 00:25:12;;;;;;;1.83;1.10;;;;;;;17.03;38.32;97366.56;4773751;29;20291;-76
2023/06/05 00:27:43;;;;;;;1.88;1.33;;;;;;;16.99;38.37;97368.19;4755797;29;20491;-75
2023/06/05 00:30:13;;;;;;;2.63;1.30;;;;;;;16.90;38.65;97359.34;4771626;29;20197;-76
2023/06/05 00:32:39;;;;;;;2.47;1.17;;;;;;;16.93;37.90;97356.94;4742730;29;20170;-78
2023/06/05 00:35:06;;;;;;;1.92;1.42;;;;;;;16.94;37.64;97355.09;4773129;29;20033;-75
2023/06/05 00:37:33;;;;;;;3.22;1.65;;;;;;;16.90;38.27;97351.47;4773164;29;20207;-76
2023/06/05 00:39:59;;;;;;;1.50;1.15;;;;;;;16.87;38.02;97350.16;4756594;29;20196;-76
2023/06/05 00:42:26;;;;;;;2.25;1.48;;;;;;;16.84;38.31;97356.78;4743889;29;20156;-75
2023/06/05 00:44:52;;;;;;;2.10;1.30;;;;;;;16.79;38.66;97353.38;4775639;29;20290;-76
2023/06/05 00:47:18;;;;;;;1.58;1.48;;;;;;;16.79;38.66;97356.81;4768079;29;20423;-76
2023/06/05 00:49:44;;;;;;;2.50;1.30;;;;;;;16.74;38.13;97350.81;4772786;29;20381;-76
2023/06/05 00:52:10;;;;;;;1.80;1.30;;;;;;;16.75;38.56;97355.78;4769730;29;20408;-76
2023/06/05 00:54:36;;;;;;;1.95;1.20;;;;;;;16.71;38.50;97359.25;4744818;29;20477;-76
2023/06/05 00:57:01;;;;;;;4.70;1.45;;;;;;;16.60;39.27;97356.72;4758094;29;20441;-76
2023/06/05 00:59:31;;;;;;;2.17;1.30;;;;;;;16.52;38.99;97351.28;4767953;29;20504;-76
2023/06/05 01:01:57;;;;;;;1.55;1.17;;;;;;;16.59;38.27;97354.41;4766133;29;20370;-77
2023/06/05 01:04:23;;;;;;;2.15;1.10;;;;;;;16.66;38.84;97357.47;4810591;23;20051;-78
2023/06/05 01:06:50;;;;;;;3.15;1.30;;;;;;;16.59;38.60;97355.19;4793343;29;20267;-77
2023/06/05 01:09:16;;;;;;;1.73;1.00;;;;;;;16.56;38.57;97347.84;4784985;29;20273;-77
2023/06/05 01:11:56;;;;;;;1.73;1.02;;;;;;;16.65;38.45;97353.28;4773527;29;20190;-77
2023/06/05 01:14:22;;;;;;;2.00;1.00;;;;;;;16.53;38.09;97351.03;4806737;29;20371;-78
2023/06/05 01:16:53;;;;;;;1.00;0.85;;;;;;;16.50;38.61;97340.28;4796771;29;20072;-77
2023/06/05 01:19:19;;;;;;;1.55;0.90;;;;;;;16.59;38.23;97349.16;4796596;29;20205;-77
2023/06/05 01:21:45;;;;;;;1.15;1.05;;;;;;;16.58;37.67;97353.59;4810894;29;20273;-77
2023/06/05 01:24:13;;;;;;;2.25;1.35;;;;;;;16.55;38.30;97348.13;4798080;29;20626;-78
2023/06/05 01:27:00;;;;;;;1.55;1.08;;;;;;;16.69;38.14;97342.97;4795288;29;20098;-79
2023/06/05 01:29:58;;;;;;;1.70;1.15;;;;;;;16.76;38.12;97338.97;4809843;29;20313;-77
2023/06/05 01:32:46;;;;;;;1.20;0.90;;;;;;;16.75;38.20;97344.50;4797263;29;20210;-78
2023/06/05 01:35:16;;;;;;;1.33;1.00;;;;;;;16.64;38.02;97328.84;4799072;29;20266;-77
2023/06/05 01:37:48;;;;;;;2.15;1.25;;;;;;;16.66;38.45;97333.81;4818443;29;20234;-78
2023/06/05 01:40:20;;;;;;;1.80;1.25;;;;;;;16.76;37.83;97330.28;4813364;29;20274;-78
2023/06/05 01:42:46;;;;;;;1.42;1.05;;;;;;;16.69;38.21;97335.09;4796065;29;20203;-78
2023/06/05 01:45:12;;;;;;;1.70;1.33;;;;;;;16.62;38.01;97324.91;4803808;29;20282;-78
2023/06/05 01:47:38;;;;;;;2.22;1.00;;;;;;;16.66;37.95;97331.19;4813249;29;20227;-78
2023/06/05 01:50:08;;;;;;;2.10;1.10;;;;;;;16.69;38.46;97329.81;4810116;29;20267;-77
2023/06/05 01:52:39;;;;;;;1.75;1.13;;;;;;;16.65;37.94;97333.00;4803926;29;20293;-78
2023/06/05 01:55:06;;;;;;;1.70;1.08;;;;;;;16.63;38.28;97335.16;4786067;29;20229;-78
2023/06/05 01:57:33;;;;;;;1.55;1.08;;;;;;;16.53;38.70;97327.38;4797596;29;20238;-78
2023/06/05 02:00:04;;;;;;;1.70;1.15;;;;;;;16.57;39.12;97330.22;4781765;29;20408;-79
2023/06/05 02:02:29;;;;;;;1.83;1.20;;;;;;;16.48;37.98;97332.66;4782745;29;20109;-78
2023/06/05 02:04:59;;;;;;;1.60;1.30;;;;;;;16.46;38.08;97327.69;4797744;29;20303;-78
2023/06/05 02:07:24;;;;;;;2.58;1.30;;;;;;;16.43;38.11;97325.63;4784622;29;20419;-78
2023/06/05 02:09:50;;;;;;;2.58;1.05;;;;;;;16.32;39.12;97320.75;4774172;29;20276;-78
2023/06/05 02:12:16;;;;;;;2.00;1.38;;;;;;;16.24;39.02;97312.41;4762473;29;20335;-78
2023/06/05 02:14:44;;;;;;;1.65;1.00;;;;;;;16.27;39.11;97324.97;4760175;29;20116;-78
2023/06/05 02:17:13;;;;;;;1.15;0.95;;;;;;;16.16;39.21;97326.16;4760542;29;20616;-78
2023/06/05 02:19:39;;;;;;;2.53;1.33;;;;;;;16.16;39.43;97320.09;4775129;29;20525;-78
2023/06/05 02:22:04;;;;;;;2.40;1.17;;;;;;;16.13;39.91;97321.44;4789129;29;20298;-78
2023/06/05 02:24:30;;;;;;;1.33;1.17;;;;;;;16.03;39.02;97318.91;4776508;29;20209;-78
2023/06/05 02:26:56;;;;;;;3.38;1.40;;;;;;;16.03;39.63;97327.56;4776506;29;20172;-78
2023/06/05 02:29:22;;;;;;;1.67;1.00;;;;;;;15.92;39.45;97320.84;4785924;29;20219;-77
2023/06/05 02:31:48;;;;;;;2.63;0.80;;;;;;;15.88;39.76;97317.97;4769661;29;20188;-78
2023/06/05 02:34:13;;;;;;;1.45;1.13;;;;;;;15.78;40.07;97310.19;4791276;29;20536;-78
2023/06/05 02:36:40;;;;;;;1.30;1.00;;;;;;;15.81;40.21;97317.50;4783383;29;20394;-78
2023/06/05 02:39:06;;;;;;;2.53;1.83;;;;;;;15.68;39.87;97321.50;4790213;29;20272;-78
2023/06/05 02:41:31;;;;;;;3.75;1.30;;;;;;;15.61;40.50;97310.53;4794076;29;20292;-78
2023/06/05 02:43:58;;;;;;;1.48;1.10;;;;;;;15.53;40.75;97314.50;4788011;29;20111;-78
2023/06/05 02:46:24;;;;;;;1.45;1.20;;;;;;;15.53;41.08;97319.00;4790635;29;20271;-78
2023/06/05 02:48:53;;;;;;;1.80;1.08;;;;;;;15.48;39.96;97309.28;4764565;29;20655;-78
2023/06/05 02:51:18;;;;;;;2.03;1.17;;;;;;;15.55;40.61;97322.88;4763095;29;20443;-79
2023/06/05 02:53:44;;;;;;;2.85;1.30;;;;;;;15.58;40.28;97316.31;4779440;29;20569;-78
2023/06/05 02:56:10;;;;;;;1.98;0.98;;;;;;;15.61;39.78;97304.50;4764509;29;20303;-78
2023/06/05 02:58:35;;;;;;;1.00;0.80;;;;;;;15.63;40.20;97315.53;4779750;29;20204;-78
2023/06/05 03:01:08;;;;;;;1.90;0.80;;;;;;;15.49;39.65;97310.88;4776355;29;20261;-77
2023/06/05 03:03:33;;;;;;;1.80;1.00;;;;;;;15.66;39.58;97315.75;4774853;29;20372;-78
2023/06/05 03:06:06;;;;;;;1.27;0.93;;;;;;;15.68;38.59;97307.59;4787555;29;20096;-78
2023/06/05 03:08:35;;;;;;;3.22;1.13;;;;;;;15.71;39.03;97302.59;4781916;29;20385;-78
2023/06/05 03:11:01;;;;;;;1.63;1.13;;;;;;;15.75;39.14;97305.47;4787882;29;20270;-78
2023/06/05 03:13:27;;;;;;;1.65;1.00;;;;;;;15.76;39.39;97307.03;4787760;29;20290;-78
2023/06/05 03:15:56;;;;;;;2.78;1.27;;;;;;;15.79;38.91;97311.75;4793793;29;20260;-77
2023/06/05 03:18:23;;;;;;;2.15;1.20;;;;;;;15.74;38.90;97304.66;4762615;29;20185;-78
2023/06/05 03:20:50;;;;;;;3.35;1.30;;;;;;;15.75;38.89;97310.72;4791798;29;20450;-77
2023/06/05 03:23:16;;;;;;;2.38;1.40;;;;;;;15.68;38.53;97315.47;4750429;29;20219;-78
2023/06/05 03:25:42;;;;;;;1.70;0.93;;;;;;;15.74;38.87;97309.13;4790123;29;20438;-77
2023/06/05 03:28:07;;;;;;;2.53;1.38;;;;;;;15.78;38.10;97314.63;4793279;29;20182;-78
2023/06/05 03:30:33;;;;;;;1.40;1.00;;;;;;;15.86;38.38;97314.81;4786746;29;20211;-78
2023/06/05 03:32:58;;;;;;;2.17;1.10;;;;;;;15.85;38.09;97309.84;4767354;29;20173;-77
2023/06/05 03:35:23;;;;;;;2.28;0.95;;;;;;;15.86;38.13;97321.94;4794805;29;20079;-78
2023/06/05 03:37:49;;;;;;;1.90;0.95;;;;;;;15.83;38.16;97311.97;4759408;29;20228;-78
2023/06/05 03:40:14;;;;;;;2.90;0.98;;;;;;;15.89;38.55;97322.16;4779901;29;20429;-78
2023/06/05 03:42:40;;;;;;;3.22;1.25;;;;;;;15.82;38.41;97311.19;4789941;29;20210;-78
2023/06/05 03:45:06;;;;;;;1.70;1.00;;;;;;;15.79;38.73;97318.84;4794287;29;20298;-77
2023/06/05 03:47:34;;;;;;;2.58;0.98;;;;;;;15.81;38.71;97325.38;4780203;29;20296;-77
2023/06/05 03:50:00;;;;;;;3.63;0.90;;;;;;;15.79;38.57;97321.47;4792813;29;20268;-78
2023/06/05 03:52:26;;;;;;;1.10;1.00;;;;;;;15.90;38.31;97318.50;4771508;29;20227;-78
2023/06/05 03:54:53;;;;;;;2.10;0.95;;;;;;;15.88;39.27;97319.81;4782940;29;20520;-78
2023/06/05 03:57:22;;;;;;;1.13;0.80;;;;;;;15.95;38.62;97324.75;4791942;29;20294;-78
2023/06/05 03:59:48;;;;;;;1.10;0.88;;;;;;;15.92;38.78;97320.84;4778990;29;20295;-78
2023/06/05 04:02:14;;;;;;;2.50;0.90;;;;;;;15.96;39.09;97327.09;4768713;29;20542;-78
2023/06/05 04:04:39;;;;;;;1.30;1.00;;;;;;;15.97;38.24;97323.44;4787827;29;20227;-78
2023/06/05 04:07:05;;;;;;;3.47;0.90;;;;;;;16.04;38.23;97323.09;4787662;29;20459;-77
2023/06/05 04:09:31;;;;;;;1.05;0.90;;;;;;;16.06;38.50;97315.75;4763118;29;20220;-78
2023/06/05 04:11:57;;;;;;;2.00;0.80;;;;;;;16.15;39.49;97323.81;4777836;29;20191;-78
2023/06/05 04:14:23;;;;;;;1.67;1.20;;;;;;;16.10;39.37;97316.75;4795448;29;20267;-78
2023/06/05 04:16:48;;;;;;;1.38;1.10;;;;;;;16.17;39.25;97330.34;4780361;29;20350;-78
2023/06/05 04:19:14;;;;;;;1.98;0.80;;;;;;;16.15;38.68;97324.56;4779610;29;20197;-78
2023/06/05 04:21:41;;;;;;;1.55;1.20;;;;;;;16.22;39.11;97329.50;4763300;29;20287;-79
2023/06/05 04:24:09;;;;;;;1.17;0.88;;;;;;;16.27;39.40;97332.88;4778132;29;20208;-77
2023/06/05 04:26:35;;;;;;;1.50;0.80;;;;;;;16.28;38.01;97339.69;4752119;29;20864;-78
2023/06/05 04:29:02;;;;;;;1.42;0.85;;;;;;;16.23;39.69;97334.50;4778964;29;20291;-78
2023/06/05 04:31:32;;;;;;;1.92;1.30;;;;;;;16.20;39.06;97331.63;4788806;29;20195;-77
2023/06/05 04:33:58;;;;;;;2.42;1.10;;;;;;;16.15;39.14;97335.09;4791067;29;20739;-77
2023/06/05 04:36:27;;;;;;;1.10;0.93;;;;;;;16.07;39.50;97325.16;4767773;29;20343;-78
2023/06/05 04:38:52;;;;;;;1.80;0.80;;;;;;;16.00;39.62;97322.84;4796566;29;20167;-78
2023/06/05 04:41:18;;;;;;;1.67;1.20;;;;;;;16.11;39.62;97323.56;4780206;29;20257;-78
2023/06/05 04:43:43;;;;;;;2.13;1.20;;;;;;;16.15;38.67;97314.06;4755552;29;20387;-77
2023/06/05 04:46:09;;;;;;;1.67;0.80;;;;;;;16.18;39.11;97312.75;4777553;29;20236;-78
2023/06/05 04:48:34;;;;;;;2.38;1.15;;;;;;;16.26;38.09;97326.06;4791803;29;20108;-78
2023/06/05 04:51:00;;;;;;;1.35;0.80;;;;;;;16.18;38.51;97316.16;4766073;29;20745;-77
2023/06/05 04:53:28;;;;;;;1.98;0.93;;;;;;;16.32;39.25;97321.53;4779631;29;20107;-77
2023/06/05 04:55:55;;;;;;;2.42;1.13;;;;;;;16.25;38.91;97318.47;4771355;29;20275;-77
2023/06/05 04:58:21;;;;;;;2.33;1.10;;;;;;;16.29;38.64;97309.72;4790349;29;20405;-78
2023/06/05 05:00:49;;;;;;;1.80;1.20;;;;;;;16.50;38.61;97330.53;4778516;29;20607;-78
2023/06/05 05:03:14;;;;;;;3.08;1.15;;;;;;;16.50;38.71;97320.03;4790388;29;20172;-78
2023/06/05 05:05:40;;;;;;;1.40;0.90;;;;;;;16.78;38.06;97322.91;4759201;29;20332;-78
2023/06/05 05:08:05;;;;;;;1.45;0.88;;;;;;;16.87;38.29;97329.13;4761307;29;20360;-79
2023/06/05 05:10:31;;;;;;;1.60;1.25;;;;;;;16.91;37.71;97322.22;4780794;29;20208;-77
2023/06/05 05:13:00;;;;;;;2.05;0.90;;;;;;;17.02;37.98;97315.78;4778678;29;20439;-78
2023/06/05 05:15:27;;;;;;;1.45;1.00;;;;;;;17.13;37.98;97324.34;4779055;29;20362;-77
2023/06/05 05:17:52;;;;;;;2.67;1.00;;;;;;;17.17;38.00;97330.63;4776195;29;20710;-77
2023/06/05 05:20:18;;;;;;;1.73;1.20;;;;;;;17.19;37.01;97325.06;4756377;29;20274;-77
2023/06/05 05:22:45;;;;;;;1.73;0.98;;;;;;;17.27;37.20;97331.53;4779243;29;20147;-77
2023/06/05 05:25:10;;;;;;;1.50;1.27;;;;;;;17.37;36.87;97326.91;4788930;29;20115;-77
2023/06/05 05:27:36;;;;;;;1.30;1.10;;;;;;;17.32;36.55;97329.59;4784011;29;20394;-77
2023/06/05 05:30:02;;;;;;;1.88;1.10;;;;;;;17.53;37.25;97326.69;4777575;29;20243;-77
2023/06/05 05:32:28;;;;;;;1.70;0.90;;;;;;;17.61;36.89;97336.59;4770836;29;20422;-78
2023/06/05 05:34:53;;;;;;;1.83;0.82;;;;;;;17.58;36.13;97330.06;4776684;29;20458;-79
2023/06/05 05:37:18;;;;;;;1.92;1.08;;;;;;;17.62;35.73;97318.97;4793446;29;20195;-78
2023/06/05 05:39:44;;;;;;;1.80;1.05;;;;;;;17.70;36.14;97329.63;4788852;29;20193;-78
2023/06/05 05:42:10;;;;;;;2.30;1.20;;;;;;;17.90;34.99;97338.31;4789958;29;20195;-79
2023/06/05 05:44:36;;;;;;;1.83;0.80;;;;;;;17.66;34.96;97335.75;4787646;29;20400;-77
2023/06/05 05:47:01;;;;;;;1.70;0.80;;;;;;;17.66;35.60;97333.09;4762367;29;20296;-78
2023/06/05 05:49:26;;;;;;;1.48;0.98;;;;;;;17.89;34.46;97327.00;4794063;29;20278;-77
2023/06/05 05:51:52;;;;;;;1.92;0.75;;;;;;;17.95;35.76;97332.94;4764617;29;20491;-79
2023/06/05 05:54:17;;;;;;;1.70;0.90;;;;;;;17.98;35.43;97319.22;4785675;29;20453;-78
2023/06/05 05:56:43;;;;;;;1.65;0.90;;;;;;;18.06;34.61;97334.34;4778357;29;20406;-77
2023/06/05 05:59:09;;;;;;;1.10;0.80;;;;;;;18.36;34.15;97334.13;4792027;29;20303;-77
2023/06/05 06:01:34;;;;;;;1.50;0.90;;;;;;;18.37;33.89;97328.56;4784353;29;20356;-78
2023/06/05 06:04:00;;;;;;;1.95;0.80;;;;;;;18.71;34.15;97337.94;4785850;29;20407;-78
2023/06/05 06:06:25;;;;;;;2.97;0.93;;;;;;;18.52;34.06;97348.59;4792576;29;20369;-76
2023/06/05 06:08:51;;;;;;;1.35;0.98;;;;;;;18.64;33.76;97319.09;4772624;29;20294;-77
2023/06/05 06:11:16;;;;;;;1.10;0.93;;;;;;;19.02;34.60;97337.38;4761058;29;20215;-78
2023/06/05 06:13:43;;;;;;;2.38;0.90;;;;;;;19.07;33.50;97332.81;4786396;29;20286;-77
2023/06/05 06:16:08;;;;;;;1.95;0.90;;;;;;;19.25;34.24;97335.59;4763389;29;20283;-77
2023/06/05 06:18:34;;;;;;;2.75;1.00;;;;;;;19.56;32.95;97338.34;4760400;29;20173;-77
2023/06/05 06:21:00;;;;;;;2.13;1.20;;;;;;;19.57;32.71;97329.38;4779039;29;20313;-77
2023/06/05 06:23:25;;;;;;;1.48;0.85;;;;;;;19.64;33.10;97324.44;4768643;29;20697;-78
2023/06/05 06:25:51;;;;;;;2.95;1.00;;;;;;;19.70;32.85;97322.44;4772634;29;20391;-78
2023/06/05 06:28:19;;;;;;;0.98;0.88;;;;;;;19.97;33.32;97342.72;4785659;29;20286;-77
2023/06/05 06:30:44;;;;;;;1.08;0.88;;;;;;;20.13;32.59;97329.13;4785252;29;20218;-79
2023/06/05 06:33:10;;;;;;;0.98;0.80;;;;;;;20.16;32.11;97339.09;4791628;29;20342;-79
2023/06/05 06:35:36;;;;;;;2.25;1.25;;;;;;;20.45;32.11;97351.09;4776594;29;20228;-78
2023/06/05 06:38:02;;;;;;;1.73;1.00;;;;;;;20.58;31.75;97343.06;4771728;29;20223;-78
2023/06/05 06:40:28;;;;;;;2.05;1.10;;;;;;;20.38;31.92;97338.28;4776728;29;20255;-77
2023/06/05 06:42:54;;;;;;;1.80;1.00;;;;;;;20.45;31.68;97345.78;4775030;29;20363;-77
2023/06/05 06:45:20;;;;;;;1.45;1.20;;;;;;;20.60;31.69;97350.69;4776488;29;20295;-78
2023/06/05 06:47:45;;;;;;;2.05;1.00;;;;;;;20.74;31.67;97345.31;4805622;29;20345;-77
2023/06/05 06:50:13;;;;;;;1.98;1.00;;;;;;;20.88;31.38;97350.50;4778948;29;20423;-78
2023/06/05 06:52:39;;;;;;;2.38;1.08;;;;;;;20.85;31.84;97345.81;4758526;29;20241;-78
2023/06/05 06:55:06;;;;;;;3.30;1.08;;;;;;;21.02;31.74;97358.31;4783067;29;20531;-78
2023/06/05 06:57:32;;;;;;;1.48;1.20;;;;;;;21.49;31.49;97354.06;4788775;29;20320;-79
2023/06/05 06:59:57;;;;;;;1.77;1.10;;;;;;;21.78;30.99;97355.31;4776963;29;20402;-77
2023/06/05 07:02:24;;;;;;;1.67;0.98;;;;;;;21.78;31.35;97352.66;4788236;29;20231;-77
2023/06/05 07:04:49;;;;;;;1.00;0.90;;;;;;;22.05;30.14;97353.41;4752757;29;20440;-79
2023/06/05 07:07:17;;;;;;;1.30;1.10;;;;;;;22.02;30.71;97344.22;4784753;29;20454;-78
2023/06/05 07:09:44;;;;;;;1.70;0.95;;;;;;;21.94;30.49;97347.66;4762701;29;20348;-77
2023/06/05 07:12:10;;;;;;;2.25;1.40;;;;;;;22.14;31.06;97348.88;4772413;29;20270;-77
2023/06/05 07:14:37;;;;;;;2.03;1.08;;;;;;;22.41;29.98;97346.94;4758276;29;20441;-77
2023/06/05 07:17:02;;;;;;;1.65;1.10;;;;;;;22.65;30.16;97342.97;4769589;29;20208;-77
2023/06/05 07:19:29;;;;;;;1.60;1.02;;;;;;;22.72;29.91;97345.88;4766706;29;20196;-76
2023/06/05 07:21:58;;;;;;;2.88;1.30;;;;;;;23.12;29.79;97340.25;4771043;29;20172;-78
2023/06/05 07:24:25;;;;;;;2.50;1.15;;;;;;;23.22;30.02;97350.50;4786675;29;20187;-76
2023/06/05 07:26:52;;;;;;;1.38;1.00;;;;;;;23.24;29.71;97350.97;4789227;29;20195;-76
2023/06/05 07:29:19;;;;;;;2.63;1.20;;;;;;;23.50;29.93;97353.41;4759798;29;20287;-79
2023/06/05 07:31:44;;;;;;;2.03;1.13;;;;;;;23.74;29.38;97363.41;4774505;29;20411;-77
2023/06/05 07:34:12;;;;;;;1.98;1.30;;;;;;;24.01;29.70;97350.69;4770069;29;20200;-77
2023/06/05 07:36:38;;;;;;;1.30;1.10;;;;;;;24.01;29.53;97347.22;4788969;29;20410;-77
2023/06/05 07:39:03;;;;;;;2.78;1.10;;;;;;;24.05;28.89;97340.94;4787865;29;20287;-77
2023/06/05 07:41:28;;;;;;;1.60;1.45;;;;;;;23.85;28.72;97336.44;4776897;29;20168;-77
2023/06/05 07:43:54;;;;;;;1.48;1.10;;;;;;;23.79;28.86;97348.38;4779463;29;20302;-77
2023/06/05 07:46:19;;;;;;;1.55;1.33;;;;;;;23.65;29.43;97335.34;4752925;29;20241;-78
2023/06/05 07:48:45;;;;;;;2.00;1.23;;;;;;;24.14;28.58;97348.06;4776557;29;20207;-78
2023/06/05 07:51:10;;;;;;;1.63;1.40;;;;;;;24.38;28.68;97332.13;4775622;29;20210;-77
2023/06/05 07:53:36;;;;;;;3.40;1.30;;;;;;;24.27;28.13;97346.97;4769959;29;20401;-77
2023/06/05 07:56:02;;;;;;;2.33;1.30;;;;;;;24.53;28.15;97338.69;4774244;29;20287;-76
2023/06/05 07:58:29;;;;;;;2.30;1.27;;;;;;;24.57;28.56;97344.16;4767537;29;20173;-77
2023/06/05 08:00:56;;;;;;;2.00;1.50;;;;;;;24.34;28.12;97346.44;4761207;29;20220;-78
2023/06/05 08:03:23;;;;;;;1.50;1.40;;;;;;;24.58;28.34;97341.16;4778111;29;20291;-77
2023/06/05 08:05:49;;;;;;;2.80;1.30;;;;;;;24.60;28.31;97351.50;4765257;29;20271;-76
2023/06/05 08:08:15;;;;;;;1.38;1.10;;;;;;;24.76;27.80;97343.59;4775889;29;20193;-77
2023/06/05 08:10:41;;;;;;;2.47;1.20;;;;;;;25.12;28.50;97350.81;4777231;29;20362;-76
2023/06/05 08:13:10;;;;;;;3.10;1.48;;;;;;;25.33;27.90;97342.69;4777520;29;20219;-77
2023/06/05 08:15:35;;;;;;;1.30;1.20;;;;;;;25.54;27.25;97337.19;4780396;29;20263;-78
2023/06/05 08:18:01;;;;;;;2.03;1.42;;;;;;;25.68;27.75;97336.03;4793866;29;20304;-78
2023/06/05 08:20:26;;;;;;;1.70;1.20;;;;;;;25.40;27.78;97339.47;4768087;29;20425;-77
2023/06/05 08:22:57;;;;;;;1.17;1.08;;;;;;;25.98;27.74;97349.84;4799206;29;20546;-78
2023/06/05 08:25:23;;;;;;;1.58;1.48;;;;;;;25.96;26.79;97336.81;4756293;29;20177;-78
2023/06/05 08:27:49;;;;;;;4.13;1.48;;;;;;;26.15;26.95;97335.41;4771952;29;20301;-78
2023/06/05 08:30:16;;;;;;;1.25;1.10;;;;;;;26.26;26.83;97338.34;4767356;29;20419;-77
2023/06/05 08:32:43;;;;;;;1.60;1.40;;;;;;;26.55;26.87;97334.47;4768449;29;20191;-78
2023/06/05 08:35:09;;;;;;;1.40;1.17;;;;;;;26.65;27.25;97338.53;4785917;29;20204;-77
2023/06/05 08:37:35;;;;;;;1.70;1.60;;;;;;;26.80;26.54;97320.94;4760449;29;20036;-78
2023/06/05 08:40:06;;;;;;;4.53;1.50;;;;;;;26.77;26.08;97316.28;4761012;29;20495;-78
2023/06/05 08:42:31;;;;;;;2.05;1.45;;;;;;;27.12;26.39;97328.88;4794971;29;20203;-78
2023/06/05 08:44:56;;;;;;;2.63;1.75;;;;;;;27.00;25.67;97321.75;4766966;29;20220;-79
2023/06/05 08:47:24;;;;;;;1.67;1.55;;;;;;;27.05;26.01;97330.28;4781302;29;20629;-77
2023/06/05 08:49:52;;;;;;;1.77;1.42;;;;;;;27.20;25.55;97320.66;4790307;29;20391;-77
2023/06/05 08:52:19;;;;;;;2.25;1.52;;;;;;;26.94;25.71;97329.28;4783592;29;20211;-77
2023/06/05 08:54:45;;;;;;;2.83;1.75;;;;;;;27.03;26.15;97324.50;4781119;29;20409;-78
2023/06/05 08:57:10;;;;;;;2.38;1.55;;;;;;;27.46;26.53;97312.03;4757126;29;20596;-77
2023/06/05 08:59:36;;;;;;;2.80;1.77;;;;;;;27.42;25.96;97332.59;4769893;29;20266;-77
2023/06/05 09:02:02;;;;;;;2.13;1.55;;;;;;;27.60;25.64;97330.28;4769927;29;20395;-77
2023/06/05 09:04:30;;;;;;;2.67;1.60;;;;;;;27.83;25.19;97324.22;4789055;29;20566;-77
2023/06/05 09:07:04;;;;;;;2.13;1.88;;;;;;;28.00;25.93;97334.50;4779937;29;20299;-77
2023/06/05 09:09:29;;;;;;;;;;;;;;;28.17;24.85;97329.78;4797130;29;20322;-78
2023/06/05 09:12:06;;;;;;;1.50;1.40;;;;;;;28.26;25.78;97334.91;4766598;29;20096;-77
2023/06/05 09:14:32;;;;;;;2.97;1.90;;;;;;;28.44;25.53;97317.25;4757607;29;20413;-78
2023/06/05 09:16:59;;;;;;;2.67;1.55;;;;;;;28.26;24.95;97316.16;4794820;29;20445;-78
2023/06/05 09:19:27;;;;;;;2.78;2.00;;;;;;;28.28;24.29;97313.94;4800956;29;20258;-76
2023/06/05 09:21:54;;;;;;;3.13;2.10;;;;;;;28.13;24.96;97320.94;4766701;29;20136;-76
2023/06/05 09:24:22;;;;;;;3.03;2.83;;;;;;;28.19;24.34;97317.63;4779472;29;20155;-78
2023/06/05 09:26:59;;;;;;;2.13;1.92;;;;;;;28.58;24.41;97320.19;4782587;29;20199;-77
2023/06/05 09:29:33;;;;;;;2.83;2.17;;;;;;;28.82;24.81;97317.44;4779461;29;20335;-77
2023/06/05 09:32:11;;;;;;;3.13;1.80;;;;;;;28.28;25.04;97319.28;4775756;29;20288;-77
2023/06/05 09:34:38;;;;;;;3.08;2.25;;;;;;;28.61;24.89;97317.91;4778412;29;20288;-77
2023/06/05 09:37:06;;;;;;;4.45;2.08;;;;;;;28.51;24.72;97312.00;4776111;29;20723;-78
2023/06/05 09:39:33;;;;;;;2.38;1.70;;;;;;;28.58;25.41;97300.63;4774048;29;20385;-77
2023/06/05 09:41:59;;;;;;;4.18;1.88;;;;;;;28.72;23.88;97324.19;4780308;29;20199;-78
2023/06/05 09:44:26;;;;;;;2.95;1.95;;;;;;;28.77;24.25;97316.63;4760624;29;20632;-78
2023/06/05 09:46:58;;;;;;;3.25;2.20;;;;;;;29.16;24.02;97318.31;4794574;29;20469;-77
2023/06/05 09:49:29;;;;;;;1.70;1.60;;;;;;;29.17;24.36;97311.84;4802375;29;20181;-77
2023/06/05 09:51:56;;;;;;;2.78;1.90;;;;;;;29.57;23.63;97299.66;4787202;29;20331;-77
2023/06/05 09:54:22;;;;;;;3.13;2.00;;;;;;;29.43;24.00;97308.31;4747008;29;20604;-77
2023/06/05 09:56:51;;;;;;;2.28;2.00;;;;;;;29.29;24.48;97308.91;4766700;29;20207;-77
2023/06/05 09:59:21;;;;;;;3.55;2.53;;;;;;;28.79;23.52;97310.91;4786262;29;20209;-78
2023/06/05 10:01:48;;;;;;;2.72;1.88;;;;;;;29.09;23.97;97304.81;4760774;29;20317;-76
2023/06/05 10:04:15;;;;;;;3.33;2.47;;;;;;;29.36;23.73;97302.13;4777561;29;20302;-76
2023/06/05 10:06:42;;;;;;;2.40;2.10;;;;;;;29.59;24.05;97300.06;4782820;29;20172;-79
2023/06/05 10:09:09;;;;;;;2.78;1.83;;;;;;;29.75;24.04;97301.75;4764921;29;20195;-76
2023/06/05 10:11:35;;;;;;;2.55;2.40;;;;;;;29.70;23.53;97306.31;4783082;29;20208;-77
2023/06/05 10:14:02;;;;;;;2.28;1.80;;;;;;;29.96;24.02;97299.31;4784407;29;20223;-76
2023/06/05 10:16:28;;;;;;;2.47;2.28;;;;;;;29.60;23.48;97300.84;4764823;29;20710;-77
2023/06/05 10:18:56;;;;;;;3.45;2.63;;;;;;;29.58;24.06;97306.56;4784292;29;20415;-77
2023/06/05 10:21:22;;;;;;;3.30;2.15;;;;;;;29.62;23.01;97301.25;4764682;29;20329;-78
2023/06/05 10:24:09;;;;;;;2.67;2.47;;;;;;;30.07;23.83;97294.03;4765428;29;20300;-78
2023/06/05 10:27:11;;;;;;;2.50;2.05;;;;;;;30.48;22.89;97301.31;4778013;29;20227;-77
2023/06/05 10:30:14;;;;;;;3.10;1.90;;;;;;;30.80;23.24;97298.84;4785052;29;20272;-77
2023/06/05 10:33:12;;;;;;;3.60;2.03;;;;;;;30.74;23.29;97301.13;4776260;29;20181;-77
2023/06/05 10:35:44;;;;;;;2.45;2.05;;;;;;;30.99;23.04;97290.50;4761611;29;20476;-78
2023/06/05 10:38:20;;;;;;;5.43;2.50;;;;;;;31.10;22.95;97293.28;4783550;29;20211;-78
2023/06/05 10:40:58;;;;;;;4.25;2.97;;;;;;;31.31;21.51;97283.75;4766097;29;20476;-77
2023/06/05 10:43:47;;;;;;;4.07;2.40;;;;;;;30.99;22.76;97292.44;4798836;29;20221;-79
2023/06/05 10:46:33;;;;;;;3.20;2.35;;;;;;;31.00;21.85;97275.16;4768343;29;20405;-78
2023/06/05 10:49:07;;;;;;;3.05;2.85;;;;;;;30.40;21.75;97285.16;4776332;29;20300;-78
2023/06/05 10:51:42;;;;;;;2.58;2.08;;;;;;;29.35;22.74;97285.22;4784205;29;20243;-78
2023/06/05 10:54:07;;;;;;;;;;;;;;;29.99;22.95;97297.78;4768170;29;20414;-76
2023/06/05 10:56:51;;;;;;;2.53;2.25;;;;;;;30.46;22.92;97276.72;4767399;29;20269;-78
2023/06/05 10:59:20;;;;;;;2.77;2.57;;;;;;;30.82;21.48;97269.66;4768234;29;20399;-78
2023/06/05 11:02:08;;;;;;;2.42;2.22;;;;;;;30.94;21.23;97271.28;4770856;29;20629;-77
2023/06/05 11:04:46;;;;;;;3.28;2.28;;;;;;;29.73;21.68;97285.25;4785235;29;20408;-77
2023/06/05 11:07:21;;;;;;;3.92;2.70;;;;;;;29.12;23.83;97288.75;4768548;29;20219;-78
2023/06/05 11:10:02;;;;;;;2.38;2.17;;;;;;;29.60;23.57;97280.16;4750101;29;20455;-78
2023/06/05 11:12:43;;;;;;;4.25;2.83;;;;;;;29.68;23.59;97281.78;4776622;29;20538;-76
2023/06/05 11:15:15;;;;;;;2.55;2.35;;;;;;;29.84;23.24;97283.47;4792163;29;20475;-76
2023/06/05 11:17:46;;;;;;;2.65;2.45;;;;;;;29.91;23.16;97277.41;4810041;29;20432;-77
2023/06/05 11:20:23;;;;;;;2.97;2.55;;;;;;;29.96;23.05;97279.75;4768291;29;20772;-76
2023/06/05 11:23:00;;;;;;;3.63;2.35;;;;;;;29.59;22.92;97278.59;4791538;29;20251;-78
2023/06/05 11:25:27;;;;;;;2.50;2.30;;;;;;;29.29;23.09;97271.38;4792757;29;20451;-78
2023/06/05 11:28:11;;;;;;;2.70;2.20;;;;;;;29.45;22.34;97268.47;4761722;29;20073;-78
2023/06/05 11:30:44;;;;;;;2.75;2.50;;;;;;;29.21;23.27;97272.41;4792367;29;20255;-77
2023/06/05 11:33:14;;;;;;;2.55;2.20;;;;;;;28.53;23.82;97269.56;4793935;29;20661;-78
2023/06/05 11:35:42;;;;;;;3.40;2.60;;;;;;;28.68;24.72;97259.06;4766611;29;20220;-77
2023/06/05 11:38:12;;;;;;;3.33;2.30;;;;;;;28.71;24.50;97258.34;4784862;29;20344;-77